Time;durP1;ratioP1;P1;durP2;ratioP2;P2;SDS_P1;SDS_P2;PMS_P1;PMS_P2;Temp;Humidity;BMP_temperature;BMP_pressure;BME280_temperature;BME280_humidity;BME280_pressure;Samples;Min_cycle;Max_cycle;Signal;HPM_P1;HPM_P2
2020/12/02 00:01:27;;;;;;;31.95;19.05;;;6.20;99.90;;;;;;5042580;28;20029;-76
2020/12/02 00:03:59;;;;;;;32.00;19.25;;;6.10;99.90;;;;;;5051439;28;20507;-77
2020/12/02 00:06:26;;;;;;;36.53;19.92;;;6.10;99.90;;;;;;5043522;28;20025;-76
2020/12/02 00:08:57;;;;;;;31.92;18.95;;;6.20;99.90;;;;;;5050383;28;20551;-76
2020/12/02 00:11:25;;;;;;;36.97;18.85;;;6.20;99.90;;;;;;5028905;28;20044;-77
2020/12/02 00:13:52;;;;;;;33.83;19.02;;;6.20;99.90;;;;;;5048591;28;20021;-77
2020/12/02 00:16:22;;;;;;;38.75;20.95;;;6.20;99.90;;;;;;5046457;28;20024;-77
2020/12/02 00:18:52;;;;;;;35.67;19.15;;;6.20;99.90;;;;;;5028834;28;20025;-75
2020/12/02 00:21:18;;;;;;;32.70;18.33;;;6.10;99.90;;;;;;5045481;28;20025;-75
2020/12/02 00:23:45;;;;;;;33.60;18.80;;;6.00;99.90;;;;;;5038816;28;20098;-76
2020/12/02 00:26:15;;;;;;;33.00;17.70;;;6.00;99.90;;;;;;5054385;28;20029;-75
2020/12/02 00:28:41;;;;;;;31.38;18.02;;;6.10;99.90;;;;;;5035700;28;20116;-76
2020/12/02 00:31:07;;;;;;;34.20;17.98;;;6.10;99.90;;;;;;5034640;28;20045;-77
2020/12/02 00:33:32;;;;;;;30.95;16.98;;;6.20;99.90;;;;;;5044571;28;20029;-78
2020/12/02 00:35:59;;;;;;;33.80;17.67;;;6.20;99.90;;;;;;5050034;28;20044;-77
2020/12/02 00:38:24;;;;;;;27.15;16.30;;;6.20;99.90;;;;;;5035027;28;20510;-78
2020/12/02 00:40:52;;;;;;;34.97;18.75;;;6.20;99.90;;;;;;5052918;28;20029;-78
2020/12/02 00:43:23;;;;;;;32.83;17.13;;;6.20;99.90;;;;;;5050973;28;20055;-78
2020/12/02 00:45:51;;;;;;;30.77;17.77;;;6.20;99.90;;;;;;5037564;28;20045;-78
2020/12/02 00:48:20;;;;;;;28.45;17.83;;;6.30;99.90;;;;;;5048991;28;20034;-78
2020/12/02 00:50:46;;;;;;;32.17;17.42;;;6.20;99.90;;;;;;5034642;28;20025;-78
2020/12/02 00:53:15;;;;;;;33.75;18.10;;;6.20;99.90;;;;;;5050874;28;20047;-78
2020/12/02 00:55:42;;;;;;;36.17;19.17;;;6.20;99.90;;;;;;5047358;28;20029;-78
2020/12/02 00:58:11;;;;;;;38.17;19.27;;;6.20;99.90;;;;;;5050014;28;20033;-78
2020/12/02 01:00:39;;;;;;;32.47;18.92;;;6.20;99.90;;;;;;5052226;28;20088;-78
2020/12/02 01:03:21;;;;;;;39.13;18.23;;;6.10;99.90;;;;;;5050565;28;20044;-78
2020/12/02 01:05:48;;;;;;;32.03;17.90;;;6.20;99.90;;;;;;5044567;28;20033;-78
2020/12/02 01:08:28;;;;;;;33.80;17.42;;;6.10;99.90;;;;;;5026995;28;20386;-79
2020/12/02 01:11:02;;;;;;;31.20;18.13;;;6.20;99.90;;;;;;5036415;28;20060;-78
2020/12/02 01:13:30;;;;;;;31.17;18.13;;;6.20;99.90;;;;;;5035309;28;20110;-79
2020/12/02 01:15:56;;;;;;;40.50;20.20;;;6.20;99.90;;;;;;5044855;28;20029;-78
2020/12/02 01:18:24;;;;;;;31.55;18.58;;;6.10;99.90;;;;;;5044979;28;20434;-78
2020/12/02 01:21:00;;;;;;;31.25;18.20;;;6.10;99.90;;;;;;5044797;28;20033;-78
2020/12/02 01:23:26;;;;;;;34.17;19.95;;;6.10;99.90;;;;;;5038034;28;20030;-78
2020/12/02 01:25:52;;;;;;;30.17;18.52;;;6.00;99.90;;;;;;5049941;28;20064;-79
2020/12/02 01:28:26;;;;;;;30.50;17.55;;;6.10;99.90;;;;;;5040667;28;20052;-79
2020/12/02 01:30:54;;;;;;;31.88;18.33;;;6.10;99.90;;;;;;5044820;28;20076;-79
2020/12/02 01:33:19;;;;;;;33.25;18.02;;;6.10;99.90;;;;;;5036178;28;20548;-79
2020/12/02 01:35:49;;;;;;;33.75;18.95;;;6.00;99.90;;;;;;5053328;28;20033;-79
2020/12/02 01:38:25;;;;;;;34.05;18.20;;;6.00;99.90;;;;;;5034557;28;20095;-79
2020/12/02 01:40:52;;;;;;;32.15;18.10;;;6.00;99.90;;;;;;5038831;28;20021;-79
2020/12/02 01:43:18;;;;;;;32.40;17.90;;;6.00;99.90;;;;;;5053059;28;20025;-79
2020/12/02 01:45:50;;;;;;;32.92;18.50;;;6.00;99.90;;;;;;5044691;28;20550;-79
2020/12/02 01:48:40;;;;;;;28.27;16.83;;;6.00;99.90;;;;;;5030371;28;20466;-79
2020/12/02 01:51:41;;;;;;;28.77;16.63;;;6.00;99.90;;;;;;5023907;28;20410;-79
2020/12/02 01:54:13;;;;;;;29.15;16.38;;;6.00;99.90;;;;;;5044656;28;20021;-78
2020/12/02 01:57:00;;;;;;;26.92;16.55;;;6.00;99.90;;;;;;5044476;28;20095;-78
2020/12/02 01:59:56;;;;;;;31.23;16.75;;;5.90;99.90;;;;;;5052503;28;20017;-79
2020/12/02 02:02:29;;;;;;;30.85;15.82;;;5.90;99.90;;;;;;5034748;28;20378;-79
2020/12/02 02:04:58;;;;;;;;;;;5.90;99.90;;;;;;5038188;28;20021;-79
2020/12/02 02:07:26;;;;;;;25.67;15.82;;;5.90;99.90;;;;;;5052108;28;19912;-79
2020/12/02 02:09:59;;;;;;;30.08;15.70;;;5.90;99.90;;;;;;5034218;28;20025;-79
2020/12/02 02:12:47;;;;;;;28.17;16.15;;;5.80;99.90;;;;;;5044497;28;20029;-79
2020/12/02 02:15:31;;;;;;;28.45;16.15;;;5.90;99.90;;;;;;5052726;28;20071;-79
2020/12/02 02:17:59;;;;;;;29.23;16.48;;;5.90;99.90;;;;;;5052814;28;20475;-78
2020/12/02 02:20:35;;;;;;;32.10;16.30;;;5.80;99.90;;;;;;5050549;28;20036;-78
2020/12/02 02:23:02;;;;;;;28.70;16.73;;;5.70;99.90;;;;;;5042464;28;20040;-79
2020/12/02 02:25:28;;;;;;;30.15;17.45;;;5.70;99.90;;;;;;5051510;28;20025;-79
2020/12/02 02:27:57;;;;;;;23.85;14.65;;;5.70;99.90;;;;;;5043617;28;20144;-79
2020/12/02 02:30:24;;;;;;;28.42;16.38;;;5.60;99.90;;;;;;5052559;28;20049;-79
2020/12/02 02:32:50;;;;;;;30.73;16.88;;;5.60;99.90;;;;;;5052316;28;20025;-79
2020/12/02 02:35:16;;;;;;;27.77;15.73;;;5.60;99.90;;;;;;5047439;28;20078;-79
2020/12/02 02:37:42;;;;;;;26.27;15.27;;;5.60;99.90;;;;;;5052410;28;20032;-79
2020/12/02 02:40:11;;;;;;;29.50;15.95;;;5.60;99.90;;;;;;5034776;28;20043;-79
2020/12/02 02:42:39;;;;;;;24.05;15.10;;;5.60;99.90;;;;;;5035567;28;20090;-79
2020/12/02 02:45:15;;;;;;;24.48;14.68;;;5.60;99.90;;;;;;5044018;28;20131;-79
2020/12/02 02:47:41;;;;;;;23.65;15.27;;;5.60;99.90;;;;;;5040740;28;20041;-79
2020/12/02 02:50:11;;;;;;;25.92;14.35;;;5.60;99.90;;;;;;5045595;28;20060;-79
2020/12/02 02:52:41;;;;;;;29.55;16.60;;;5.50;99.90;;;;;;5037298;28;20410;-79
2020/12/02 02:55:14;;;;;;;28.08;15.18;;;5.50;99.90;;;;;;5033102;28;20025;-79
2020/12/02 02:57:39;;;;;;;27.55;16.02;;;5.50;99.90;;;;;;5033325;28;20029;-80
2020/12/02 03:00:08;;;;;;;27.50;16.35;;;5.50;99.90;;;;;;5051112;28;20083;-79
2020/12/02 03:02:34;;;;;;;28.40;16.27;;;5.50;99.90;;;;;;5053072;28;20025;-79
2020/12/02 03:05:00;;;;;;;28.50;16.77;;;5.50;99.90;;;;;;5052917;28;20074;-79
2020/12/02 03:07:26;;;;;;;34.13;17.42;;;5.50;99.90;;;;;;5052905;28;20021;-79
2020/12/02 03:09:52;;;;;;;35.03;17.73;;;5.50;99.90;;;;;;5034793;28;20036;-79
2020/12/02 03:12:19;;;;;;;30.45;16.42;;;5.60;99.90;;;;;;5052936;28;20032;-79
2020/12/02 03:14:45;;;;;;;25.52;15.85;;;5.60;99.90;;;;;;5035006;28;20548;-79
2020/12/02 03:17:17;;;;;;;27.45;16.65;;;5.60;99.90;;;;;;5052683;28;20108;-79
2020/12/02 03:19:50;;;;;;;27.23;16.80;;;5.70;99.90;;;;;;5032758;28;20029;-79
2020/12/02 03:22:19;;;;;;;31.13;16.08;;;5.60;99.90;;;;;;5032703;28;20026;-79
2020/12/02 03:24:45;;;;;;;32.67;16.65;;;5.60;99.90;;;;;;5032716;28;20029;-79
2020/12/02 03:27:10;;;;;;;28.98;15.93;;;5.70;99.90;;;;;;5046022;28;20386;-79
2020/12/02 03:29:36;;;;;;;28.13;15.77;;;5.70;99.90;;;;;;5052637;28;20017;-79
2020/12/02 03:32:02;;;;;;;27.45;16.05;;;5.70;99.90;;;;;;5051296;28;20040;-79
2020/12/02 03:34:28;;;;;;;25.10;15.68;;;5.70;99.90;;;;;;5047678;28;20036;-79
2020/12/02 03:36:53;;;;;;;26.55;15.27;;;5.60;99.90;;;;;;5034215;28;20112;-79
2020/12/02 03:39:19;;;;;;;25.00;15.05;;;5.60;99.90;;;;;;5056463;28;20111;-79
2020/12/02 03:41:45;;;;;;;25.15;15.27;;;5.60;99.90;;;;;;5055358;28;20035;-79
2020/12/02 03:44:11;;;;;;;27.50;15.82;;;5.60;99.90;;;;;;5056535;28;20031;-79
2020/12/02 03:46:37;;;;;;;23.40;13.43;;;5.50;99.90;;;;;;5056215;28;20025;-79
2020/12/02 03:49:03;;;;;;;23.70;14.50;;;5.40;99.90;;;;;;5056458;28;20021;-79
2020/12/02 03:51:31;;;;;;;28.52;15.57;;;5.40;99.90;;;;;;5056547;28;20109;-80
2020/12/02 03:53:57;;;;;;;30.15;16.20;;;5.30;99.90;;;;;;5035441;28;20026;-81
2020/12/02 03:56:23;;;;;;;28.05;16.55;;;5.30;99.90;;;;;;5036487;28;20021;-80
2020/12/02 03:58:48;;;;;;;27.17;16.27;;;5.30;99.90;;;;;;5036425;28;20135;-79
2020/12/02 04:01:15;;;;;;;24.77;14.25;;;5.20;99.90;;;;;;5036444;28;20066;-79
2020/12/02 04:03:41;;;;;;;22.20;13.38;;;5.20;99.90;;;;;;5036289;28;20029;-80
2020/12/02 04:06:07;;;;;;;23.90;13.45;;;5.20;99.90;;;;;;5053719;28;20025;-79
2020/12/02 04:08:35;;;;;;;16.45;10.43;;;5.20;99.90;;;;;;5056151;28;20471;-79
2020/12/02 04:11:01;;;;;;;16.75;10.52;;;5.30;99.90;;;;;;5056042;28;20028;-79
2020/12/02 04:13:26;;;;;;;19.88;11.63;;;5.40;99.90;;;;;;5056190;28;20025;-79
2020/12/02 04:15:52;;;;;;;23.67;14.32;;;5.50;99.90;;;;;;5055878;28;20505;-79
2020/12/02 04:18:18;;;;;;;25.40;14.40;;;5.40;99.90;;;;;;5056032;28;20106;-80
2020/12/02 04:20:44;;;;;;;25.23;15.50;;;5.20;99.90;;;;;;5055974;28;20440;-80
2020/12/02 04:23:10;;;;;;;30.17;15.48;;;5.00;99.90;;;;;;5043142;28;20683;-80
2020/12/02 04:25:35;;;;;;;25.50;15.75;;;5.10;99.90;;;;;;5018098;28;20545;-79
2020/12/02 04:28:01;;;;;;;27.70;15.77;;;5.10;99.90;;;;;;5040859;28;20025;-80
2020/12/02 04:30:26;;;;;;;27.75;16.45;;;5.10;99.90;;;;;;5055416;28;20041;-80
2020/12/02 04:32:52;;;;;;;29.83;16.05;;;5.10;99.90;;;;;;5055791;28;20171;-80
2020/12/02 04:35:18;;;;;;;31.02;15.85;;;5.10;99.90;;;;;;5037776;28;20029;-80
2020/12/02 04:37:44;;;;;;;32.53;16.63;;;5.20;99.90;;;;;;5054397;28;20032;-80
2020/12/02 04:40:28;;;;;;;27.38;15.43;;;5.20;99.90;;;;;;5035558;28;20026;-79
2020/12/02 04:43:02;;;;;;;27.42;16.83;;;5.20;99.90;;;;;;5035718;28;20029;-79
2020/12/02 04:45:31;;;;;;;28.35;15.63;;;5.30;99.90;;;;;;5017797;28;20036;-79
2020/12/02 04:48:03;;;;;;;28.70;16.13;;;5.30;99.90;;;;;;5034672;28;20110;-79
2020/12/02 04:50:30;;;;;;;25.27;15.85;;;5.30;99.90;;;;;;5055458;28;20029;-78
2020/12/02 04:53:08;;;;;;;30.27;16.67;;;5.20;99.90;;;;;;5055344;28;20031;-80
2020/12/02 04:55:33;;;;;;;27.17;16.45;;;5.20;99.90;;;;;;5055199;28;20100;-80
2020/12/02 04:57:59;;;;;;;27.38;16.17;;;5.20;99.90;;;;;;5055342;28;20032;-80
2020/12/02 05:00:32;;;;;;;24.00;14.73;;;5.30;99.90;;;;;;5037258;28;20041;-79
2020/12/02 05:03:07;;;;;;;28.20;16.13;;;5.20;99.90;;;;;;5017593;28;20036;-81
2020/12/02 05:05:33;;;;;;;28.02;16.48;;;5.30;99.90;;;;;;5035043;28;20065;-81
2020/12/02 05:08:17;;;;;;;26.15;16.05;;;5.30;99.90;;;;;;5017372;28;20104;-80
2020/12/02 05:10:43;;;;;;;25.67;13.90;;;5.20;99.90;;;;;;5018363;28;20376;-80
2020/12/02 05:13:10;;;;;;;16.05;10.70;;;5.10;99.90;;;;;;5035179;28;20104;-81
2020/12/02 05:15:36;;;;;;;17.02;12.10;;;5.00;99.90;;;;;;5017329;28;20031;-79
2020/12/02 05:18:24;;;;;;;18.33;11.02;;;4.90;99.90;;;;;;5051779;28;20452;-80
2020/12/02 05:21:01;;;;;;;30.90;14.32;;;4.90;99.90;;;;;;5029270;28;20032;-80
2020/12/02 05:23:27;;;;;;;19.10;12.00;;;4.90;99.90;;;;;;5070302;28;20035;-80
2020/12/02 05:25:53;;;;;;;14.13;10.00;;;4.90;99.90;;;;;;5054654;28;20116;-80
2020/12/02 05:28:38;;;;;;;11.75;9.65;;;4.70;99.90;;;;;;5053704;28;20112;-79
2020/12/02 05:31:24;;;;;;;15.70;10.63;;;4.70;99.90;;;;;;5054523;28;20444;-79
2020/12/02 05:33:50;;;;;;;19.35;11.85;;;4.80;99.90;;;;;;5036638;28;20470;-80
2020/12/02 05:36:32;;;;;;;17.80;11.70;;;4.80;99.90;;;;;;5054625;28;20017;-80
2020/12/02 05:39:27;;;;;;;20.70;13.60;;;4.70;99.90;;;;;;5035034;28;20020;-80
2020/12/02 05:41:54;;;;;;;19.50;12.68;;;4.70;99.90;;;;;;5041258;28;20490;-79
2020/12/02 05:44:22;;;;;;;20.05;13.30;;;4.60;99.90;;;;;;5033626;28;20048;-79
2020/12/02 05:46:56;;;;;;;20.27;13.25;;;4.60;99.90;;;;;;5034475;28;20025;-79
2020/12/02 05:49:44;;;;;;;20.83;13.77;;;4.60;99.90;;;;;;5034349;28;20060;-79
2020/12/02 05:52:25;;;;;;;23.42;14.18;;;4.60;99.90;;;;;;5034339;28;20025;-80
2020/12/02 05:55:01;;;;;;;19.08;13.43;;;4.70;99.90;;;;;;5034261;28;20032;-80
2020/12/02 05:57:27;;;;;;;17.80;12.30;;;4.70;99.90;;;;;;5034245;28;20018;-80
2020/12/02 05:59:56;;;;;;;19.73;11.90;;;4.70;99.90;;;;;;5016187;28;20032;-81
2020/12/02 06:02:24;;;;;;;21.20;12.23;;;4.80;99.90;;;;;;5016324;28;20021;-80
2020/12/02 06:04:52;;;;;;;16.10;11.75;;;4.70;99.90;;;;;;5016997;28;20113;-80
2020/12/02 06:07:19;;;;;;;18.23;12.10;;;4.80;99.90;;;;;;5032353;28;20048;-80
2020/12/02 06:09:48;;;;;;;17.77;12.15;;;4.70;99.90;;;;;;5052936;28;20013;-79
2020/12/02 06:12:19;;;;;;;18.70;11.60;;;4.80;99.90;;;;;;5035124;28;20719;-79
2020/12/02 06:14:46;;;;;;;19.85;12.73;;;4.80;99.90;;;;;;5053514;28;20024;-79
2020/12/02 06:17:26;;;;;;;19.00;13.02;;;4.70;99.90;;;;;;5048799;28;20486;-79
2020/12/02 06:19:52;;;;;;;20.15;13.38;;;4.70;99.90;;;;;;5033845;28;20022;-79
2020/12/02 06:22:34;;;;;;;24.77;14.05;;;4.80;99.90;;;;;;5034146;28;20075;-79
2020/12/02 06:25:01;;;;;;;26.30;14.73;;;4.80;99.90;;;;;;5033701;28;20029;-79
2020/12/02 06:27:29;;;;;;;16.35;11.05;;;4.80;99.90;;;;;;5033517;28;20029;-80
2020/12/02 06:30:00;;;;;;;16.00;10.77;;;4.70;99.90;;;;;;5050088;28;20033;-80
2020/12/02 06:32:26;;;;;;;16.45;10.38;;;4.70;99.90;;;;;;5050563;28;20028;-79
2020/12/02 06:35:11;;;;;;;13.48;10.13;;;4.60;99.90;;;;;;5033551;28;20029;-80
2020/12/02 06:37:37;;;;;;;14.52;9.73;;;4.50;99.90;;;;;;5015859;28;20029;-79
2020/12/02 06:40:03;;;;;;;13.35;9.90;;;4.50;99.90;;;;;;5033432;28;20475;-80
2020/12/02 06:42:36;;;;;;;10.93;9.18;;;4.50;99.90;;;;;;5015424;28;20025;-80
2020/12/02 06:45:49;;;;;;;14.82;10.70;;;4.50;99.90;;;;;;5053150;28;20025;-79
2020/12/02 06:48:24;;;;;;;;;;;4.40;99.90;;;;;;5003145;28;20032;-80
2020/12/02 06:50:50;;;;;;;12.77;9.23;;;4.30;99.90;;;;;;5053178;28;20329;-80
2020/12/02 06:53:21;;;;;;;12.73;9.35;;;4.30;99.90;;;;;;5052022;28;20029;-79
2020/12/02 06:55:48;;;;;;;14.43;9.80;;;4.20;99.90;;;;;;5052958;28;20029;-79
2020/12/02 06:58:16;;;;;;;10.13;8.60;;;4.10;99.90;;;;;;5052918;28;20083;-80
2020/12/02 07:00:50;;;;;;;11.60;8.50;;;4.10;99.90;;;;;;5035011;28;20029;-80
2020/12/02 07:03:18;;;;;;;13.98;9.90;;;4.10;99.90;;;;;;5052263;28;20037;-80
2020/12/02 07:05:45;;;;;;;11.05;9.00;;;3.90;99.90;;;;;;5032923;28;20040;-80
2020/12/02 07:08:13;;;;;;;11.75;8.38;;;3.90;99.90;;;;;;5033111;28;20053;-80
2020/12/02 07:10:40;;;;;;;12.05;8.82;;;3.90;99.90;;;;;;5016093;28;20068;-80
2020/12/02 07:13:13;;;;;;;10.23;8.13;;;3.80;99.90;;;;;;5052272;28;20029;-80
2020/12/02 07:15:39;;;;;;;12.95;8.93;;;3.80;99.90;;;;;;5034211;28;20061;-80
2020/12/02 07:18:17;;;;;;;9.68;8.45;;;3.90;99.90;;;;;;5032673;28;20115;-80
2020/12/02 07:20:48;;;;;;;11.05;8.63;;;3.80;99.90;;;;;;5031639;28;20075;-80
2020/12/02 07:23:18;;;;;;;13.23;8.88;;;3.80;99.90;;;;;;5031064;28;20052;-81
2020/12/02 07:25:44;;;;;;;11.02;8.88;;;3.80;99.90;;;;;;5032555;28;20057;-81
2020/12/02 07:28:15;;;;;;;9.82;7.90;;;3.70;99.90;;;;;;5034897;28;20057;-81
2020/12/02 07:30:41;;;;;;;13.20;8.10;;;3.80;99.90;;;;;;5034693;28;20045;-80
2020/12/02 07:33:15;;;;;;;11.15;8.32;;;3.80;99.90;;;;;;5052650;28;20506;-80
2020/12/02 07:35:41;;;;;;;11.90;7.82;;;3.80;99.90;;;;;;5052221;28;20060;-80
2020/12/02 07:38:08;;;;;;;7.50;6.18;;;3.70;99.90;;;;;;5052267;28;20099;-79
2020/12/02 07:40:38;;;;;;;8.88;7.65;;;5.10;99.90;;;;;;5052357;28;20719;-79
2020/12/02 07:43:08;;;;;;;11.27;7.68;;;4.70;99.90;;;;;;5032752;28;20526;-80
2020/12/02 07:45:35;;;;;;;10.20;8.27;;;4.40;99.90;;;;;;5050603;28;20025;-73
2020/12/02 07:48:15;;;;;;;13.70;9.38;;;4.20;99.90;;;;;;5051317;28;20521;-74
2020/12/02 07:50:44;;;;;;;11.60;9.90;;;4.10;99.90;;;;;;5051629;28;20087;-74
2020/12/02 07:53:16;;;;;;;12.27;9.85;;;3.90;99.90;;;;;;5034580;28;20032;-78
2020/12/02 07:55:45;;;;;;;12.43;9.25;;;3.90;99.90;;;;;;5052064;28;20036;-78
2020/12/02 07:58:41;;;;;;;9.82;7.88;;;3.80;99.90;;;;;;5052205;28;20501;-78
2020/12/02 08:01:35;;;;;;;11.75;7.85;;;3.80;99.90;;;;;;5030725;28;20487;-78
2020/12/02 08:04:34;;;;;;;18.65;8.35;;;3.70;99.90;;;;;;5043267;28;20037;-78
2020/12/02 08:07:00;;;;;;;13.07;8.07;;;3.70;99.90;;;;;;5034884;28;20048;-78
2020/12/02 08:09:26;;;;;;;14.40;8.43;;;3.60;99.90;;;;;;5040814;28;20025;-73
2020/12/02 08:11:58;;;;;;;11.13;7.55;;;3.70;99.90;;;;;;5047607;28;20033;-73
2020/12/02 08:14:30;;;;;;;9.75;6.75;;;3.70;99.90;;;;;;5050099;28;20704;-73
2020/12/02 08:17:23;;;;;;;11.93;7.75;;;3.60;99.90;;;;;;5047397;28;20112;-73
2020/12/02 08:19:54;;;;;;;12.20;8.52;;;3.60;99.90;;;;;;5045044;28;20047;-73
2020/12/02 08:22:49;;;;;;;12.07;8.93;;;3.60;99.90;;;;;;5050324;28;20071;-73
2020/12/02 08:25:30;;;;;;;13.73;9.70;;;3.60;99.90;;;;;;5035262;28;20029;-73
2020/12/02 08:28:05;;;;;;;14.70;10.43;;;3.60;99.90;;;;;;5047926;28;20424;-74
2020/12/02 08:30:30;;;;;;;13.23;10.13;;;3.60;99.90;;;;;;5053607;28;20036;-73
2020/12/02 08:33:06;;;;;;;16.27;11.85;;;3.60;99.90;;;;;;5049800;28;20032;-73
2020/12/02 08:35:38;;;;;;;16.30;11.57;;;3.50;99.90;;;;;;5054162;28;20041;-73
2020/12/02 08:38:05;;;;;;;14.90;10.27;;;3.60;99.90;;;;;;5045480;28;20626;-73
2020/12/02 08:40:38;;;;;;;15.63;11.52;;;3.60;99.90;;;;;;5032147;28;20469;-74
2020/12/02 08:43:16;;;;;;;14.48;10.85;;;3.60;99.90;;;;;;5053254;28;20040;-73
2020/12/02 08:45:56;;;;;;;18.08;12.18;;;3.60;99.90;;;;;;5044989;28;20033;-73
2020/12/02 08:48:22;;;;;;;14.18;10.80;;;3.60;99.90;;;;;;5048163;28;20077;-73
2020/12/02 08:50:48;;;;;;;15.07;11.20;;;3.60;99.90;;;;;;5051237;28;20069;-73
2020/12/02 08:53:22;;;;;;;15.60;11.03;;;3.60;99.90;;;;;;5035884;28;20056;-73
2020/12/02 08:55:48;;;;;;;14.90;10.90;;;3.60;99.90;;;;;;5052710;28;20028;-73
2020/12/02 08:58:13;;;;;;;14.52;10.65;;;3.60;99.90;;;;;;5051837;28;20426;-73
2020/12/02 09:00:39;;;;;;;14.50;10.40;;;3.60;99.90;;;;;;5051417;28;20025;-73
2020/12/02 09:03:05;;;;;;;16.30;10.80;;;3.70;99.90;;;;;;5050658;28;20028;-74
2020/12/02 09:05:31;;;;;;;13.93;11.32;;;3.60;99.90;;;;;;5062842;28;20572;-73
2020/12/02 09:07:57;;;;;;;15.57;11.70;;;3.60;99.90;;;;;;5047450;28;20028;-73
2020/12/02 09:10:23;;;;;;;13.68;11.15;;;3.60;99.90;;;;;;5046701;28;20370;-74
2020/12/02 09:12:49;;;;;;;16.40;12.63;;;3.60;99.90;;;;;;5045048;28;20363;-73
2020/12/02 09:15:15;;;;;;;21.23;16.00;;;3.60;99.90;;;;;;5045982;28;20390;-73
2020/12/02 09:17:40;;;;;;;23.57;14.57;;;3.50;99.90;;;;;;5052024;28;20037;-73
2020/12/02 09:20:06;;;;;;;19.33;13.47;;;3.50;99.90;;;;;;5044311;28;20105;-73
2020/12/02 09:22:32;;;;;;;18.65;12.63;;;3.50;99.90;;;;;;5049465;28;20414;-74
2020/12/02 09:24:58;;;;;;;11.30;8.77;;;3.60;99.90;;;;;;5049648;28;20025;-74
2020/12/02 09:27:24;;;;;;;10.13;8.53;;;3.60;99.90;;;;;;5045340;28;20091;-74
2020/12/02 09:29:50;;;;;;;10.52;9.18;;;3.60;99.90;;;;;;5052884;28;20024;-73
2020/12/02 09:32:16;;;;;;;9.87;8.87;;;3.60;99.90;;;;;;5047029;28;20041;-74
2020/12/02 09:34:41;;;;;;;13.20;10.83;;;3.70;99.90;;;;;;5028565;28;20029;-74
2020/12/02 09:37:13;;;;;;;8.93;8.03;;;3.60;99.90;;;;;;5035025;28;20025;-74
2020/12/02 09:39:40;;;;;;;9.50;8.07;;;3.70;99.90;;;;;;5051866;28;20029;-73
2020/12/02 09:42:24;;;;;;;8.67;7.53;;;3.70;99.90;;;;;;5052353;28;20120;-73
2020/12/02 09:45:35;;;;;;;9.87;7.37;;;3.70;99.90;;;;;;5050329;28;20087;-73
2020/12/02 09:48:13;;;;;;;7.47;6.77;;;3.80;99.90;;;;;;5032429;28;20041;-74
2020/12/02 09:50:40;;;;;;;17.90;11.27;;;3.70;99.90;;;;;;5047084;28;20051;-74
2020/12/02 09:53:35;;;;;;;18.47;12.27;;;3.60;99.90;;;;;;5026786;28;20029;-73
2020/12/02 09:56:00;;;;;;;13.87;11.07;;;3.60;99.90;;;;;;5034194;28;20052;-73
2020/12/02 09:58:26;;;;;;;13.00;11.03;;;3.60;99.90;;;;;;5052423;28;20025;-73
2020/12/02 10:01:00;;;;;;;11.57;9.90;;;3.60;99.90;;;;;;5032897;28;20025;-73
2020/12/02 10:03:42;;;;;;;16.10;10.83;;;3.50;99.90;;;;;;5052443;28;20111;-74
2020/12/02 10:06:12;;;;;;;11.27;10.17;;;3.60;99.90;;;;;;5048520;28;20056;-73
2020/12/02 10:09:16;;;;;;;10.43;9.37;;;3.60;99.90;;;;;;5033586;28;20056;-73
2020/12/02 10:12:19;;;;;;;10.97;8.27;;;3.60;99.90;;;;;;5044339;28;20025;-74
2020/12/02 10:15:08;;;;;;;11.52;9.75;;;3.60;99.90;;;;;;5049083;28;20040;-73
2020/12/02 10:17:52;;;;;;;12.00;10.40;;;3.60;99.90;;;;;;5049444;28;20112;-73
2020/12/02 10:20:46;;;;;;;12.10;10.07;;;3.70;99.90;;;;;;5055935;28;20124;-73
2020/12/02 10:23:29;;;;;;;13.80;11.07;;;3.60;99.90;;;;;;5040160;28;20614;-73
2020/12/02 10:26:19;;;;;;;16.13;11.30;;;3.60;99.90;;;;;;5051336;28;20498;-73
2020/12/02 10:28:48;;;;;;;16.13;11.67;;;3.50;99.90;;;;;;5049013;28;20021;-73
2020/12/02 10:31:25;;;;;;;21.10;13.43;;;3.50;99.90;;;;;;5046738;28;20419;-73
2020/12/02 10:34:17;;;;;;;25.53;15.37;;;3.50;99.90;;;;;;5044479;28;20686;-73
2020/12/02 10:36:54;;;;;;;32.90;20.90;;;3.50;99.90;;;;;;5046149;28;20074;-73
2020/12/02 10:39:28;;;;;;;27.87;19.53;;;3.50;99.90;;;;;;5027321;28;20290;-73
2020/12/02 10:42:07;;;;;;;29.43;18.87;;;3.50;99.90;;;;;;5050190;28;20072;-73
2020/12/02 10:44:40;;;;;;;26.07;18.10;;;3.50;99.90;;;;;;5033112;28;20087;-73
2020/12/02 10:47:15;;;;;;;26.93;17.90;;;3.50;99.90;;;;;;5049648;28;20033;-73
2020/12/02 10:49:45;;;;;;;21.03;15.17;;;3.50;99.90;;;;;;5047597;28;20383;-73
2020/12/02 10:52:16;;;;;;;17.43;13.70;;;3.50;99.90;;;;;;5051436;28;20049;-73
2020/12/02 10:54:46;;;;;;;22.20;16.60;;;3.50;99.90;;;;;;5050287;28;20029;-73
2020/12/02 10:57:19;;;;;;;22.97;16.73;;;3.50;99.90;;;;;;5026283;28;20027;-73
2020/12/02 10:59:46;;;;;;;19.83;14.93;;;3.50;99.90;;;;;;5051507;28;20029;-73
2020/12/02 11:02:17;;;;;;;20.83;14.07;;;3.50;99.90;;;;;;5032692;28;20036;-73
2020/12/02 11:04:46;;;;;;;18.45;13.93;;;3.50;99.90;;;;;;5043338;28;20099;-73
2020/12/02 11:07:43;;;;;;;12.60;10.60;;;3.60;99.90;;;;;;5047229;28;20059;-73
2020/12/02 11:10:22;;;;;;;11.00;8.97;;;3.60;99.90;;;;;;5051304;28;20017;-73
2020/12/02 11:12:57;;;;;;;11.73;10.13;;;3.60;99.90;;;;;;5049904;28;20115;-73
2020/12/02 11:15:45;;;;;;;10.37;9.27;;;3.60;99.90;;;;;;5044895;28;20052;-73
2020/12/02 11:18:26;;;;;;;12.53;10.50;;;3.70;99.90;;;;;;5043358;28;20123;-73
2020/12/02 11:21:22;;;;;;;9.33;7.70;;;3.60;99.90;;;;;;5032968;28;20115;-73
2020/12/02 11:24:33;;;;;;;7.87;7.17;;;3.70;99.90;;;;;;5046934;28;20115;-73
2020/12/02 11:26:59;;;;;;;13.03;9.87;;;3.70;99.90;;;;;;5050133;28;20099;-73
2020/12/02 11:29:25;;;;;;;18.27;13.43;;;3.70;99.90;;;;;;5045714;28;20021;-73
2020/12/02 11:32:25;;;;;;;83.60;34.10;;;3.70;99.90;;;;;;5051101;28;20402;-73
2020/12/02 11:35:38;;;;;;;21.93;13.83;;;3.60;99.90;;;;;;5047712;28;20056;-73
2020/12/02 11:38:09;;;;;;;11.30;9.07;;;3.70;99.90;;;;;;5032973;28;20155;-73
2020/12/02 11:41:25;;;;;;;8.70;6.57;;;3.70;99.90;;;;;;5051056;28;20078;-73
2020/12/02 11:43:58;;;;;;;5.03;4.67;;;3.70;99.90;;;;;;5002179;28;20039;-74
2020/12/02 11:46:26;;;;;;;5.78;4.95;;;3.80;99.90;;;;;;5049801;28;20075;-73
2020/12/02 11:49:16;;;;;;;7.33;6.47;;;3.80;99.90;;;;;;5033211;28;20025;-73
2020/12/02 11:52:19;;;;;;;20.27;13.40;;;3.70;99.90;;;;;;5046523;28;20478;-73
2020/12/02 11:54:45;;;;;;;15.27;10.47;;;3.70;99.90;;;;;;5020886;28;20031;-74
2020/12/02 11:57:14;;;;;;;11.93;8.53;;;3.70;99.90;;;;;;5043301;28;20024;-73
2020/12/02 11:59:39;;;;;;;10.00;8.73;;;3.70;99.90;;;;;;5054253;28;20021;-73
2020/12/02 12:02:45;;;;;;;10.67;7.90;;;3.70;99.90;;;;;;5033913;28;20031;-73
2020/12/02 12:05:21;;;;;;;26.58;11.52;;;3.60;99.90;;;;;;5052250;28;20025;-73
2020/12/02 12:07:52;;;;;;;6.27;5.63;;;3.50;99.90;;;;;;5048108;28;20044;-73
2020/12/02 12:10:21;;;;;;;9.87;8.07;;;3.60;99.90;;;;;;5031452;28;20029;-73
2020/12/02 12:12:53;;;;;;;8.13;7.33;;;3.60;99.90;;;;;;5047545;28;20588;-73
2020/12/02 12:15:32;;;;;;;7.70;7.03;;;3.70;99.90;;;;;;5049869;28;20059;-74
2020/12/02 12:18:03;;;;;;;15.27;11.13;;;3.60;99.90;;;;;;5053188;28;20021;-74
2020/12/02 12:20:33;;;;;;;20.48;11.63;;;3.60;99.90;;;;;;5054203;28;20055;-73
2020/12/02 12:23:11;;;;;;;23.10;13.93;;;3.60;99.90;;;;;;5049707;28;20619;-73
2020/12/02 12:25:37;;;;;;;17.97;12.53;;;3.70;99.90;;;;;;5054202;28;20025;-73
2020/12/02 12:28:07;;;;;;;14.50;9.60;;;3.70;99.90;;;;;;5054101;28;20098;-73
2020/12/02 12:30:32;;;;;;;15.57;11.37;;;3.80;99.90;;;;;;5040749;28;20029;-73
2020/12/02 12:33:06;;;;;;;18.73;12.03;;;3.70;99.90;;;;;;5051579;28;20033;-73
2020/12/02 12:35:43;;;;;;;19.93;12.53;;;3.80;99.90;;;;;;5045216;28;20095;-73
2020/12/02 12:38:37;;;;;;;15.60;10.40;;;3.80;99.90;;;;;;5046072;28;20033;-74
2020/12/02 12:41:35;;;;;;;15.25;11.32;;;3.80;99.90;;;;;;5044350;28;20037;-73
2020/12/02 12:44:18;;;;;;;17.73;11.63;;;3.90;99.90;;;;;;5053803;28;20391;-73
2020/12/02 12:46:57;;;;;;;21.00;13.60;;;3.80;99.90;;;;;;5028580;28;20128;-73
2020/12/02 12:49:23;;;;;;;29.83;15.23;;;3.90;99.90;;;;;;5047576;28;20029;-73
2020/12/02 12:51:55;;;;;;;48.38;24.17;;;3.90;99.90;;;;;;5048720;28;20029;-73
2020/12/02 12:54:20;;;;;;;31.02;17.58;;;3.90;99.90;;;;;;5047324;28;20029;-72
2020/12/02 12:56:51;;;;;;;21.80;14.15;;;4.00;99.90;;;;;;5045267;28;20013;-74
2020/12/02 12:59:20;;;;;;;16.40;11.50;;;4.00;99.90;;;;;;5030710;28;20014;-73
2020/12/02 13:01:48;;;;;;;16.75;9.30;;;4.10;99.90;;;;;;5058513;28;20030;-73
2020/12/02 13:04:18;;;;;;;8.52;7.70;;;4.20;99.90;;;;;;5047583;28;20021;-73
2020/12/02 13:07:18;;;;;;;5.75;5.20;;;4.10;99.90;;;;;;5044334;28;20014;-73
2020/12/02 13:09:59;;;;;;;6.22;5.03;;;4.00;99.90;;;;;;5049642;28;20028;-73